sensor_id;sensor_type;location;lat;lon;timestamp;P1;durP1;ratioP1;P2;durP2;ratioP2
71475;SDS011;59286;59.274;17.974;2023-08-21T00:01:49;25.17;;;14.00;;
71475;SDS011;59286;59.274;17.974;2023-08-21T00:04:14;26.60;;;15.05;;
71475;SDS011;59286;59.274;17.974;2023-08-21T00:06:40;36.13;;;19.45;;
71475;SDS011;59286;59.274;17.974;2023-08-21T00:09:05;26.83;;;15.55;;
71475;SDS011;59286;59.274;17.974;2023-08-21T00:11:31;70.40;;;25.77;;
71475;SDS011;59286;59.274;17.974;2023-08-21T00:13:56;48.00;;;20.38;;
71475;SDS011;59286;59.274;17.974;2023-08-21T00:16:21;44.00;;;20.75;;
71475;SDS011;59286;59.274;17.974;2023-08-21T00:18:47;72.57;;;28.20;;
71475;SDS011;59286;59.274;17.974;2023-08-21T00:21:12;32.13;;;17.00;;
71475;SDS011;59286;59.274;17.974;2023-08-21T00:23:38;23.77;;;13.65;;
71475;SDS011;59286;59.274;17.974;2023-08-21T00:26:03;41.15;;;19.23;;
71475;SDS011;59286;59.274;17.974;2023-08-21T00:28:29;53.47;;;22.50;;
71475;SDS011;59286;59.274;17.974;2023-08-21T00:31:07;38.10;;;18.85;;
71475;SDS011;59286;59.274;17.974;2023-08-21T00:33:32;29.43;;;16.47;;
71475;SDS011;59286;59.274;17.974;2023-08-21T00:35:59;37.67;;;18.83;;
71475;SDS011;59286;59.274;17.974;2023-08-21T00:38:24;41.15;;;18.95;;
71475;SDS011;59286;59.274;17.974;2023-08-21T00:40:51;53.67;;;23.65;;
71475;SDS011;59286;59.274;17.974;2023-08-21T00:43:16;59.35;;;24.48;;
71475;SDS011;59286;59.274;17.974;2023-08-21T00:45:43;64.00;;;25.35;;
71475;SDS011;59286;59.274;17.974;2023-08-21T00:48:09;35.83;;;18.98;;
71475;SDS011;59286;59.274;17.974;2023-08-21T00:50:36;58.05;;;24.70;;
71475;SDS011;59286;59.274;17.974;2023-08-21T00:53:02;35.05;;;19.30;;
71475;SDS011;59286;59.274;17.974;2023-08-21T00:55:28;22.02;;;14.25;;
71475;SDS011;59286;59.274;17.974;2023-08-21T00:57:55;36.08;;;18.42;;
71475;SDS011;59286;59.274;17.974;2023-08-21T01:00:20;50.50;;;24.02;;
71475;SDS011;59286;59.274;17.974;2023-08-21T01:02:47;37.15;;;18.55;;
71475;SDS011;59286;59.274;17.974;2023-08-21T01:05:12;43.15;;;21.08;;
71475;SDS011;59286;59.274;17.974;2023-08-21T01:07:40;48.78;;;21.15;;
71475;SDS011;59286;59.274;17.974;2023-08-21T01:16:19;22.95;;;14.68;;
71475;SDS011;59286;59.274;17.974;2023-08-21T01:18:46;27.88;;;17.27;;
71475;SDS011;59286;59.274;17.974;2023-08-21T01:21:13;20.40;;;13.50;;
71475;SDS011;59286;59.274;17.974;2023-08-21T01:23:40;24.40;;;15.48;;
71475;SDS011;59286;59.274;17.974;2023-08-21T01:26:07;29.15;;;15.45;;
71475;SDS011;59286;59.274;17.974;2023-08-21T01:28:32;46.10;;;20.08;;
71475;SDS011;59286;59.274;17.974;2023-08-21T01:31:22;47.13;;;21.30;;
71475;SDS011;59286;59.274;17.974;2023-08-21T01:33:57;101.50;;;28.23;;
71475;SDS011;59286;59.274;17.974;2023-08-21T01:36:24;19.45;;;12.50;;
71475;SDS011;59286;59.274;17.974;2023-08-21T01:38:51;45.70;;;20.92;;
71475;SDS011;59286;59.274;17.974;2023-08-21T01:41:17;41.00;;;20.88;;
71475;SDS011;59286;59.274;17.974;2023-08-21T01:43:42;14.40;;;10.43;;
71475;SDS011;59286;59.274;17.974;2023-08-21T01:46:07;41.80;;;20.40;;
71475;SDS011;59286;59.274;17.974;2023-08-21T01:48:33;31.45;;;18.02;;
71475;SDS011;59286;59.274;17.974;2023-08-21T01:51:00;21.30;;;13.75;;
71475;SDS011;59286;59.274;17.974;2023-08-21T01:53:27;30.77;;;17.30;;
71475;SDS011;59286;59.274;17.974;2023-08-21T01:55:52;24.70;;;16.05;;
71475;SDS011;59286;59.274;17.974;2023-08-21T01:58:18;24.00;;;14.88;;
71475;SDS011;59286;59.274;17.974;2023-08-21T02:00:45;41.45;;;20.55;;
71475;SDS011;59286;59.274;17.974;2023-08-21T02:03:11;49.05;;;22.65;;
71475;SDS011;59286;59.274;17.974;2023-08-21T02:05:37;25.42;;;15.70;;
71475;SDS011;59286;59.274;17.974;2023-08-21T02:08:04;31.88;;;15.45;;
71475;SDS011;59286;59.274;17.974;2023-08-21T02:10:29;28.08;;;15.43;;
71475;SDS011;59286;59.274;17.974;2023-08-21T02:12:55;33.88;;;17.33;;
71475;SDS011;59286;59.274;17.974;2023-08-21T02:15:20;41.67;;;20.65;;
71475;SDS011;59286;59.274;17.974;2023-08-21T02:17:47;49.03;;;20.02;;
71475;SDS011;59286;59.274;17.974;2023-08-21T02:20:12;21.73;;;12.57;;
71475;SDS011;59286;59.274;17.974;2023-08-21T02:22:37;41.97;;;19.00;;
71475;SDS011;59286;59.274;17.974;2023-08-21T02:25:03;54.45;;;22.30;;
71475;SDS011;59286;59.274;17.974;2023-08-21T02:27:28;31.00;;;17.20;;
71475;SDS011;59286;59.274;17.974;2023-08-21T02:29:54;22.30;;;13.95;;
71475;SDS011;59286;59.274;17.974;2023-08-21T02:32:19;31.85;;;17.50;;
71475;SDS011;59286;59.274;17.974;2023-08-21T02:34:44;26.85;;;15.60;;
71475;SDS011;59286;59.274;17.974;2023-08-21T02:37:09;37.83;;;18.73;;
71475;SDS011;59286;59.274;17.974;2023-08-21T02:39:35;15.55;;;11.20;;
71475;SDS011;59286;59.274;17.974;2023-08-21T02:42:00;34.60;;;16.85;;
71475;SDS011;59286;59.274;17.974;2023-08-21T02:44:25;27.50;;;13.88;;
71475;SDS011;59286;59.274;17.974;2023-08-21T02:46:51;16.63;;;11.20;;
71475;SDS011;59286;59.274;17.974;2023-08-21T02:49:16;40.92;;;18.75;;
71475;SDS011;59286;59.274;17.974;2023-08-21T02:51:41;23.67;;;14.15;;
71475;SDS011;59286;59.274;17.974;2023-08-21T02:54:07;35.20;;;18.13;;
71475;SDS011;59286;59.274;17.974;2023-08-21T02:56:32;31.42;;;17.90;;
71475;SDS011;59286;59.274;17.974;2023-08-21T02:58:57;32.63;;;18.02;;
71475;SDS011;59286;59.274;17.974;2023-08-21T03:01:23;17.13;;;11.30;;
71475;SDS011;59286;59.274;17.974;2023-08-21T03:03:48;24.65;;;14.90;;
71475;SDS011;59286;59.274;17.974;2023-08-21T03:06:13;45.22;;;20.42;;
71475;SDS011;59286;59.274;17.974;2023-08-21T03:08:41;20.42;;;12.00;;
71475;SDS011;59286;59.274;17.974;2023-08-21T03:11:08;16.23;;;10.77;;
71475;SDS011;59286;59.274;17.974;2023-08-21T03:13:33;24.88;;;15.35;;
71475;SDS011;59286;59.274;17.974;2023-08-21T03:15:59;23.02;;;13.55;;
71475;SDS011;59286;59.274;17.974;2023-08-21T03:18:24;33.58;;;15.32;;
71475;SDS011;59286;59.274;17.974;2023-08-21T03:20:49;16.73;;;10.82;;
71475;SDS011;59286;59.274;17.974;2023-08-21T03:23:15;24.85;;;14.23;;
71475;SDS011;59286;59.274;17.974;2023-08-21T03:25:40;17.60;;;9.75;;
71475;SDS011;59286;59.274;17.974;2023-08-21T03:28:05;28.90;;;13.77;;
71475;SDS011;59286;59.274;17.974;2023-08-21T03:30:30;32.80;;;14.10;;
71475;SDS011;59286;59.274;17.974;2023-08-21T03:32:56;27.20;;;12.55;;
71475;SDS011;59286;59.274;17.974;2023-08-21T03:35:21;12.15;;;8.05;;
71475;SDS011;59286;59.274;17.974;2023-08-21T03:37:46;19.00;;;8.85;;
71475;SDS011;59286;59.274;17.974;2023-08-21T03:40:12;8.57;;;6.97;;
71475;SDS011;59286;59.274;17.974;2023-08-21T03:42:37;19.02;;;10.48;;
71475;SDS011;59286;59.274;17.974;2023-08-21T03:45:03;14.57;;;8.85;;
71475;SDS011;59286;59.274;17.974;2023-08-21T03:47:29;11.75;;;7.75;;
71475;SDS011;59286;59.274;17.974;2023-08-21T03:49:55;16.25;;;9.80;;
71475;SDS011;59286;59.274;17.974;2023-08-21T03:52:20;14.68;;;9.00;;
71475;SDS011;59286;59.274;17.974;2023-08-21T03:54:45;12.10;;;6.90;;
71475;SDS011;59286;59.274;17.974;2023-08-21T03:57:11;8.18;;;5.82;;
71475;SDS011;59286;59.274;17.974;2023-08-21T03:59:36;11.30;;;7.97;;
71475;SDS011;59286;59.274;17.974;2023-08-21T04:02:01;10.90;;;6.53;;
71475;SDS011;59286;59.274;17.974;2023-08-21T04:04:27;8.98;;;5.53;;
71475;SDS011;59286;59.274;17.974;2023-08-21T04:06:52;7.95;;;5.35;;
71475;SDS011;59286;59.274;17.974;2023-08-21T04:09:17;7.97;;;5.70;;
71475;SDS011;59286;59.274;17.974;2023-08-21T04:11:43;8.13;;;5.22;;
71475;SDS011;59286;59.274;17.974;2023-08-21T04:14:08;6.20;;;4.40;;
71475;SDS011;59286;59.274;17.974;2023-08-21T04:16:33;6.50;;;4.55;;
71475;SDS011;59286;59.274;17.974;2023-08-21T04:18:59;5.70;;;4.65;;
71475;SDS011;59286;59.274;17.974;2023-08-21T04:21:24;7.30;;;5.18;;
71475;SDS011;59286;59.274;17.974;2023-08-21T04:23:49;3.67;;;3.33;;
71475;SDS011;59286;59.274;17.974;2023-08-21T04:26:15;9.30;;;5.30;;
71475;SDS011;59286;59.274;17.974;2023-08-21T04:28:40;6.88;;;5.32;;
71475;SDS011;59286;59.274;17.974;2023-08-21T04:31:06;7.25;;;4.72;;
71475;SDS011;59286;59.274;17.974;2023-08-21T04:33:33;6.78;;;3.97;;
71475;SDS011;59286;59.274;17.974;2023-08-21T04:35:59;5.45;;;4.43;;
71475;SDS011;59286;59.274;17.974;2023-08-21T04:38:24;4.35;;;3.90;;
71475;SDS011;59286;59.274;17.974;2023-08-21T04:40:49;5.60;;;4.50;;
71475;SDS011;59286;59.274;17.974;2023-08-21T04:43:15;6.38;;;4.65;;
71475;SDS011;59286;59.274;17.974;2023-08-21T04:45:50;5.93;;;4.32;;
71475;SDS011;59286;59.274;17.974;2023-08-21T04:48:19;6.68;;;4.22;;
71475;SDS011;59286;59.274;17.974;2023-08-21T04:50:45;7.85;;;5.53;;
71475;SDS011;59286;59.274;17.974;2023-08-21T04:53:11;14.25;;;5.25;;
71475;SDS011;59286;59.274;17.974;2023-08-21T04:55:36;6.20;;;4.00;;
71475;SDS011;59286;59.274;17.974;2023-08-21T04:58:02;8.07;;;5.05;;
71475;SDS011;59286;59.274;17.974;2023-08-21T05:00:28;12.43;;;6.90;;
71475;SDS011;59286;59.274;17.974;2023-08-21T05:02:53;11.73;;;7.15;;
71475;SDS011;59286;59.274;17.974;2023-08-21T05:05:19;12.25;;;6.93;;
71475;SDS011;59286;59.274;17.974;2023-08-21T05:07:45;13.15;;;6.93;;
71475;SDS011;59286;59.274;17.974;2023-08-21T05:10:10;10.18;;;6.10;;
71475;SDS011;59286;59.274;17.974;2023-08-21T05:12:36;13.90;;;6.70;;
71475;SDS011;59286;59.274;17.974;2023-08-21T05:15:01;10.90;;;6.22;;
71475;SDS011;59286;59.274;17.974;2023-08-21T05:17:27;11.02;;;5.95;;
71475;SDS011;59286;59.274;17.974;2023-08-21T05:19:52;13.13;;;6.53;;
71475;SDS011;59286;59.274;17.974;2023-08-21T05:22:17;9.18;;;5.30;;
71475;SDS011;59286;59.274;17.974;2023-08-21T05:24:43;8.45;;;5.00;;
71475;SDS011;59286;59.274;17.974;2023-08-21T05:27:08;13.80;;;5.45;;
71475;SDS011;59286;59.274;17.974;2023-08-21T05:29:33;7.13;;;4.90;;
71475;SDS011;59286;59.274;17.974;2023-08-21T05:31:59;6.20;;;3.30;;
71475;SDS011;59286;59.274;17.974;2023-08-21T05:34:25;7.53;;;4.53;;
71475;SDS011;59286;59.274;17.974;2023-08-21T05:36:50;6.78;;;4.18;;
71475;SDS011;59286;59.274;17.974;2023-08-21T05:39:16;7.85;;;4.13;;
71475;SDS011;59286;59.274;17.974;2023-08-21T05:41:41;6.75;;;3.95;;
71475;SDS011;59286;59.274;17.974;2023-08-21T05:44:06;8.88;;;3.88;;
71475;SDS011;59286;59.274;17.974;2023-08-21T05:46:32;5.13;;;2.80;;
71475;SDS011;59286;59.274;17.974;2023-08-21T05:48:57;10.52;;;3.40;;
71475;SDS011;59286;59.274;17.974;2023-08-21T05:51:22;3.90;;;2.70;;
71475;SDS011;59286;59.274;17.974;2023-08-21T05:53:48;7.97;;;2.85;;
71475;SDS011;59286;59.274;17.974;2023-08-21T05:56:13;5.75;;;2.85;;
71475;SDS011;59286;59.274;17.974;2023-08-21T05:58:38;9.07;;;3.10;;
71475;SDS011;59286;59.274;17.974;2023-08-21T06:01:03;5.88;;;2.53;;
71475;SDS011;59286;59.274;17.974;2023-08-21T06:03:29;4.97;;;2.83;;
71475;SDS011;59286;59.274;17.974;2023-08-21T06:05:54;10.45;;;2.85;;
71475;SDS011;59286;59.274;17.974;2023-08-21T06:08:19;6.10;;;2.72;;
71475;SDS011;59286;59.274;17.974;2023-08-21T06:10:45;6.63;;;2.75;;
71475;SDS011;59286;59.274;17.974;2023-08-21T06:13:15;5.57;;;2.35;;
71475;SDS011;59286;59.274;17.974;2023-08-21T06:15:42;4.90;;;2.63;;
71475;SDS011;59286;59.274;17.974;2023-08-21T06:18:08;7.97;;;3.20;;
71475;SDS011;59286;59.274;17.974;2023-08-21T06:20:33;5.65;;;2.53;;
71475;SDS011;59286;59.274;17.974;2023-08-21T06:22:59;4.20;;;2.53;;
71475;SDS011;59286;59.274;17.974;2023-08-21T06:25:24;6.40;;;2.65;;
71475;SDS011;59286;59.274;17.974;2023-08-21T06:27:49;5.65;;;2.35;;
71475;SDS011;59286;59.274;17.974;2023-08-21T06:30:15;5.57;;;2.55;;
71475;SDS011;59286;59.274;17.974;2023-08-21T06:32:42;6.15;;;2.42;;
71475;SDS011;59286;59.274;17.974;2023-08-21T06:35:07;7.45;;;2.92;;
71475;SDS011;59286;59.274;17.974;2023-08-21T06:37:33;9.35;;;3.10;;
71475;SDS011;59286;59.274;17.974;2023-08-21T06:39:58;10.10;;;2.97;;
71475;SDS011;59286;59.274;17.974;2023-08-21T06:42:23;6.70;;;3.10;;
71475;SDS011;59286;59.274;17.974;2023-08-21T06:44:49;7.18;;;2.88;;
71475;SDS011;59286;59.274;17.974;2023-08-21T06:47:14;6.18;;;3.28;;
71475;SDS011;59286;59.274;17.974;2023-08-21T06:49:39;5.55;;;2.75;;
71475;SDS011;59286;59.274;17.974;2023-08-21T06:52:05;8.55;;;3.00;;
71475;SDS011;59286;59.274;17.974;2023-08-21T06:54:30;5.25;;;2.60;;
71475;SDS011;59286;59.274;17.974;2023-08-21T06:56:56;5.22;;;2.83;;
71475;SDS011;59286;59.274;17.974;2023-08-21T06:59:21;10.73;;;2.80;;
71475;SDS011;59286;59.274;17.974;2023-08-21T07:01:46;6.07;;;2.75;;
71475;SDS011;59286;59.274;17.974;2023-08-21T07:04:12;6.90;;;2.80;;
71475;SDS011;59286;59.274;17.974;2023-08-21T07:06:38;8.07;;;2.70;;
71475;SDS011;59286;59.274;17.974;2023-08-21T07:09:04;7.22;;;2.80;;
71475;SDS011;59286;59.274;17.974;2023-08-21T07:11:29;7.22;;;2.30;;
71475;SDS011;59286;59.274;17.974;2023-08-21T07:13:55;11.10;;;2.92;;
71475;SDS011;59286;59.274;17.974;2023-08-21T07:16:20;8.70;;;2.67;;
71475;SDS011;59286;59.274;17.974;2023-08-21T07:18:45;6.63;;;2.50;;
71475;SDS011;59286;59.274;17.974;2023-08-21T07:21:10;6.30;;;2.72;;
71475;SDS011;59286;59.274;17.974;2023-08-21T07:23:36;5.65;;;2.20;;
71475;SDS011;59286;59.274;17.974;2023-08-21T07:26:01;5.47;;;2.60;;
71475;SDS011;59286;59.274;17.974;2023-08-21T07:28:27;6.72;;;2.45;;
71475;SDS011;59286;59.274;17.974;2023-08-21T07:30:56;6.50;;;2.38;;
71475;SDS011;59286;59.274;17.974;2023-08-21T07:33:25;6.43;;;2.75;;
71475;SDS011;59286;59.274;17.974;2023-08-21T07:36:01;4.82;;;2.55;;
71475;SDS011;59286;59.274;17.974;2023-08-21T07:38:28;4.88;;;2.30;;
71475;SDS011;59286;59.274;17.974;2023-08-21T07:41:09;4.38;;;2.03;;
71475;SDS011;59286;59.274;17.974;2023-08-21T07:43:36;7.05;;;2.40;;
71475;SDS011;59286;59.274;17.974;2023-08-21T07:46:03;6.18;;;2.45;;
71475;SDS011;59286;59.274;17.974;2023-08-21T07:48:33;4.15;;;2.35;;
71475;SDS011;59286;59.274;17.974;2023-08-21T07:50:58;5.20;;;2.20;;
71475;SDS011;59286;59.274;17.974;2023-08-21T07:53:24;9.95;;;2.72;;
71475;SDS011;59286;59.274;17.974;2023-08-21T07:55:50;4.45;;;2.20;;
71475;SDS011;59286;59.274;17.974;2023-08-21T07:58:15;7.45;;;2.30;;
71475;SDS011;59286;59.274;17.974;2023-08-21T08:00:41;8.68;;;2.55;;
71475;SDS011;59286;59.274;17.974;2023-08-21T08:03:09;8.52;;;2.65;;
71475;SDS011;59286;59.274;17.974;2023-08-21T08:05:36;6.82;;;2.50;;
71475;SDS011;59286;59.274;17.974;2023-08-21T08:08:01;3.70;;;2.22;;
71475;SDS011;59286;59.274;17.974;2023-08-21T08:10:27;6.35;;;2.40;;
71475;SDS011;59286;59.274;17.974;2023-08-21T08:12:52;6.78;;;2.17;;
71475;SDS011;59286;59.274;17.974;2023-08-21T08:15:18;7.07;;;2.47;;
71475;SDS011;59286;59.274;17.974;2023-08-21T08:17:43;6.18;;;2.65;;
71475;SDS011;59286;59.274;17.974;2023-08-21T08:20:11;5.50;;;2.30;;
71475;SDS011;59286;59.274;17.974;2023-08-21T08:22:37;6.20;;;2.30;;
71475;SDS011;59286;59.274;17.974;2023-08-21T08:25:02;3.55;;;1.98;;
71475;SDS011;59286;59.274;17.974;2023-08-21T08:27:28;6.93;;;2.40;;
71475;SDS011;59286;59.274;17.974;2023-08-21T08:29:54;7.57;;;2.40;;
71475;SDS011;59286;59.274;17.974;2023-08-21T08:32:19;6.43;;;2.38;;
71475;SDS011;59286;59.274;17.974;2023-08-21T08:34:44;4.18;;;2.05;;
71475;SDS011;59286;59.274;17.974;2023-08-21T08:37:11;5.60;;;2.10;;
71475;SDS011;59286;59.274;17.974;2023-08-21T08:39:37;5.80;;;2.08;;
71475;SDS011;59286;59.274;17.974;2023-08-21T08:42:02;7.28;;;2.38;;
71475;SDS011;59286;59.274;17.974;2023-08-21T08:44:29;5.25;;;2.15;;
71475;SDS011;59286;59.274;17.974;2023-08-21T08:46:55;5.60;;;2.40;;
71475;SDS011;59286;59.274;17.974;2023-08-21T08:49:21;5.45;;;2.40;;
71475;SDS011;59286;59.274;17.974;2023-08-21T08:51:49;5.70;;;2.22;;
71475;SDS011;59286;59.274;17.974;2023-08-21T08:54:15;6.53;;;2.47;;
71475;SDS011;59286;59.274;17.974;2023-08-21T08:56:42;6.65;;;2.30;;
71475;SDS011;59286;59.274;17.974;2023-08-21T08:59:07;5.63;;;2.38;;
71475;SDS011;59286;59.274;17.974;2023-08-21T09:01:33;5.47;;;2.08;;
71475;SDS011;59286;59.274;17.974;2023-08-21T09:03:58;6.53;;;2.15;;
71475;SDS011;59286;59.274;17.974;2023-08-21T09:06:23;7.47;;;2.22;;
71475;SDS011;59286;59.274;17.974;2023-08-21T09:08:55;4.20;;;1.98;;
71475;SDS011;59286;59.274;17.974;2023-08-21T09:11:22;7.00;;;2.15;;
71475;SDS011;59286;59.274;17.974;2023-08-21T09:13:51;4.80;;;2.00;;
71475;SDS011;59286;59.274;17.974;2023-08-21T09:16:18;8.75;;;2.65;;
71475;SDS011;59286;59.274;17.974;2023-08-21T09:18:47;4.82;;;1.90;;
71475;SDS011;59286;59.274;17.974;2023-08-21T09:21:21;7.03;;;2.60;;
71475;SDS011;59286;59.274;17.974;2023-08-21T09:23:47;4.70;;;1.58;;
71475;SDS011;59286;59.274;17.974;2023-08-21T09:26:21;4.18;;;2.10;;
71475;SDS011;59286;59.274;17.974;2023-08-21T09:28:50;5.47;;;2.28;;
71475;SDS011;59286;59.274;17.974;2023-08-21T09:31:24;3.47;;;1.92;;
71475;SDS011;59286;59.274;17.974;2023-08-21T09:34:01;7.85;;;2.25;;
71475;SDS011;59286;59.274;17.974;2023-08-21T09:36:30;6.55;;;2.33;;
71475;SDS011;59286;59.274;17.974;2023-08-21T09:38:57;4.57;;;2.00;;
71475;SDS011;59286;59.274;17.974;2023-08-21T09:41:23;5.40;;;1.80;;
71475;SDS011;59286;59.274;17.974;2023-08-21T09:43:49;4.05;;;1.50;;
71475;SDS011;59286;59.274;17.974;2023-08-21T09:46:15;5.13;;;1.70;;
71475;SDS011;59286;59.274;17.974;2023-08-21T09:48:41;3.13;;;1.42;;
71475;SDS011;59286;59.274;17.974;2023-08-21T09:51:09;5.63;;;1.77;;
71475;SDS011;59286;59.274;17.974;2023-08-21T09:53:35;4.72;;;1.63;;
71475;SDS011;59286;59.274;17.974;2023-08-21T09:56:00;5.53;;;1.55;;
71475;SDS011;59286;59.274;17.974;2023-08-21T09:58:29;5.40;;;1.83;;
71475;SDS011;59286;59.274;17.974;2023-08-21T10:00:58;4.30;;;1.70;;
71475;SDS011;59286;59.274;17.974;2023-08-21T10:03:25;5.85;;;1.92;;
71475;SDS011;59286;59.274;17.974;2023-08-21T10:05:51;2.88;;;1.63;;
71475;SDS011;59286;59.274;17.974;2023-08-21T10:08:21;3.22;;;1.60;;
71475;SDS011;59286;59.274;17.974;2023-08-21T10:10:49;6.13;;;1.90;;
71475;SDS011;59286;59.274;17.974;2023-08-21T10:13:15;5.97;;;2.22;;
71475;SDS011;59286;59.274;17.974;2023-08-21T10:15:41;5.82;;;1.90;;
71475;SDS011;59286;59.274;17.974;2023-08-21T10:18:18;4.72;;;1.70;;
71475;SDS011;59286;59.274;17.974;2023-08-21T10:20:43;5.05;;;1.98;;
71475;SDS011;59286;59.274;17.974;2023-08-21T10:23:09;4.85;;;1.70;;
71475;SDS011;59286;59.274;17.974;2023-08-21T10:25:35;6.20;;;1.83;;
71475;SDS011;59286;59.274;17.974;2023-08-21T10:28:07;4.65;;;1.77;;
71475;SDS011;59286;59.274;17.974;2023-08-21T10:30:32;5.65;;;1.90;;
71475;SDS011;59286;59.274;17.974;2023-08-21T10:32:58;3.85;;;1.33;;
71475;SDS011;59286;59.274;17.974;2023-08-21T10:35:25;3.38;;;1.40;;
71475;SDS011;59286;59.274;17.974;2023-08-21T10:38:13;7.07;;;1.65;;
71475;SDS011;59286;59.274;17.974;2023-08-21T10:46:09;3.00;;;1.35;;
71475;SDS011;59286;59.274;17.974;2023-08-21T10:48:35;5.40;;;1.30;;
71475;SDS011;59286;59.274;17.974;2023-08-21T10:51:02;6.95;;;1.38;;
71475;SDS011;59286;59.274;17.974;2023-08-21T10:53:29;6.53;;;1.48;;
71475;SDS011;59286;59.274;17.974;2023-08-21T10:55:55;4.15;;;1.30;;
71475;SDS011;59286;59.274;17.974;2023-08-21T10:58:22;6.03;;;1.38;;
71475;SDS011;59286;59.274;17.974;2023-08-21T11:00:57;7.28;;;1.52;;
71475;SDS011;59286;59.274;17.974;2023-08-21T11:03:24;2.25;;;1.10;;
71475;SDS011;59286;59.274;17.974;2023-08-21T11:06:02;5.07;;;1.65;;
71475;SDS011;59286;59.274;17.974;2023-08-21T11:08:31;5.47;;;1.35;;
71475;SDS011;59286;59.274;17.974;2023-08-21T11:10:58;3.35;;;1.10;;
71475;SDS011;59286;59.274;17.974;2023-08-21T11:13:24;4.00;;;1.60;;
71475;SDS011;59286;59.274;17.974;2023-08-21T11:15:57;3.40;;;1.40;;
71475;SDS011;59286;59.274;17.974;2023-08-21T11:21:04;5.00;;;1.55;;
71475;SDS011;59286;59.274;17.974;2023-08-21T11:23:34;4.57;;;1.60;;
71475;SDS011;59286;59.274;17.974;2023-08-21T11:26:01;7.22;;;1.60;;
71475;SDS011;59286;59.274;17.974;2023-08-21T11:28:29;4.47;;;1.40;;
71475;SDS011;59286;59.274;17.974;2023-08-21T11:30:55;4.45;;;1.20;;
71475;SDS011;59286;59.274;17.974;2023-08-21T11:33:21;3.08;;;1.35;;
71475;SDS011;59286;59.274;17.974;2023-08-21T11:35:46;4.63;;;1.48;;
71475;SDS011;59286;59.274;17.974;2023-08-21T11:38:19;2.90;;;1.20;;
71475;SDS011;59286;59.274;17.974;2023-08-21T11:40:52;5.32;;;1.40;;
71475;SDS011;59286;59.274;17.974;2023-08-21T11:43:19;4.32;;;1.30;;
71475;SDS011;59286;59.274;17.974;2023-08-21T11:45:45;4.78;;;1.20;;
71475;SDS011;59286;59.274;17.974;2023-08-21T11:48:11;2.25;;;1.17;;
71475;SDS011;59286;59.274;17.974;2023-08-21T11:50:36;4.15;;;1.40;;
71475;SDS011;59286;59.274;17.974;2023-08-21T11:53:02;5.72;;;1.40;;
71475;SDS011;59286;59.274;17.974;2023-08-21T11:55:28;4.55;;;1.38;;
71475;SDS011;59286;59.274;17.974;2023-08-21T11:57:54;5.35;;;1.30;;
71475;SDS011;59286;59.274;17.974;2023-08-21T12:00:26;4.60;;;1.38;;
71475;SDS011;59286;59.274;17.974;2023-08-21T12:02:56;5.55;;;1.40;;
71475;SDS011;59286;59.274;17.974;2023-08-21T12:05:24;4.50;;;1.30;;
71475;SDS011;59286;59.274;17.974;2023-08-21T12:07:49;6.32;;;1.38;;
71475;SDS011;59286;59.274;17.974;2023-08-21T12:10:21;4.18;;;1.23;;
71475;SDS011;59286;59.274;17.974;2023-08-21T12:12:48;5.00;;;1.20;;
71475;SDS011;59286;59.274;17.974;2023-08-21T12:15:13;4.75;;;1.42;;
71475;SDS011;59286;59.274;17.974;2023-08-21T12:17:38;5.60;;;1.10;;
71475;SDS011;59286;59.274;17.974;2023-08-21T12:20:04;2.60;;;1.27;;
71475;SDS011;59286;59.274;17.974;2023-08-21T12:22:35;5.50;;;1.38;;
71475;SDS011;59286;59.274;17.974;2023-08-21T12:25:01;2.97;;;1.13;;
71475;SDS011;59286;59.274;17.974;2023-08-21T12:27:26;5.45;;;1.30;;
71475;SDS011;59286;59.274;17.974;2023-08-21T12:29:51;3.63;;;1.13;;
71475;SDS011;59286;59.274;17.974;2023-08-21T12:32:17;3.42;;;1.10;;
71475;SDS011;59286;59.274;17.974;2023-08-21T12:34:42;5.53;;;0.93;;
71475;SDS011;59286;59.274;17.974;2023-08-21T12:37:07;3.92;;;1.00;;
71475;SDS011;59286;59.274;17.974;2023-08-21T12:39:33;4.47;;;1.52;;
71475;SDS011;59286;59.274;17.974;2023-08-21T12:41:58;4.53;;;1.17;;
71475;SDS011;59286;59.274;17.974;2023-08-21T12:44:23;3.40;;;1.10;;
71475;SDS011;59286;59.274;17.974;2023-08-21T12:46:49;5.53;;;1.30;;
71475;SDS011;59286;59.274;17.974;2023-08-21T12:49:16;2.70;;;1.20;;
71475;SDS011;59286;59.274;17.974;2023-08-21T12:51:41;3.03;;;1.25;;
71475;SDS011;59286;59.274;17.974;2023-08-21T12:54:06;2.92;;;0.95;;
71475;SDS011;59286;59.274;17.974;2023-08-21T12:56:34;5.65;;;1.20;;
71475;SDS011;59286;59.274;17.974;2023-08-21T12:58:59;3.10;;;1.10;;
71475;SDS011;59286;59.274;17.974;2023-08-21T13:01:25;5.07;;;1.23;;
71475;SDS011;59286;59.274;17.974;2023-08-21T13:03:51;5.60;;;1.45;;
71475;SDS011;59286;59.274;17.974;2023-08-21T13:06:16;4.88;;;1.00;;
71475;SDS011;59286;59.274;17.974;2023-08-21T13:08:41;3.55;;;0.88;;
71475;SDS011;59286;59.274;17.974;2023-08-21T13:11:07;3.95;;;1.15;;
71475;SDS011;59286;59.274;17.974;2023-08-21T13:13:33;1.92;;;0.85;;
71475;SDS011;59286;59.274;17.974;2023-08-21T13:15:58;2.58;;;0.98;;
71475;SDS011;59286;59.274;17.974;2023-08-21T13:18:25;4.20;;;1.00;;
71475;SDS011;59286;59.274;17.974;2023-08-21T13:20:50;2.78;;;0.90;;
71475;SDS011;59286;59.274;17.974;2023-08-21T13:23:15;6.07;;;1.00;;
71475;SDS011;59286;59.274;17.974;2023-08-21T13:25:41;4.93;;;1.20;;
71475;SDS011;59286;59.274;17.974;2023-08-21T13:28:06;3.22;;;1.02;;
71475;SDS011;59286;59.274;17.974;2023-08-21T13:30:32;3.47;;;1.30;;
71475;SDS011;59286;59.274;17.974;2023-08-21T13:32:57;4.22;;;1.25;;
71475;SDS011;59286;59.274;17.974;2023-08-21T13:35:22;4.97;;;0.90;;
71475;SDS011;59286;59.274;17.974;2023-08-21T13:37:48;4.82;;;1.40;;
71475;SDS011;59286;59.274;17.974;2023-08-21T13:40:14;3.33;;;1.08;;
71475;SDS011;59286;59.274;17.974;2023-08-21T13:42:41;7.25;;;1.30;;
71475;SDS011;59286;59.274;17.974;2023-08-21T13:45:08;4.57;;;1.60;;
71475;SDS011;59286;59.274;17.974;2023-08-21T13:47:41;3.22;;;1.00;;
71475;SDS011;59286;59.274;17.974;2023-08-21T13:50:09;4.45;;;1.20;;
71475;SDS011;59286;59.274;17.974;2023-08-21T13:52:35;5.05;;;1.33;;
71475;SDS011;59286;59.274;17.974;2023-08-21T13:55:01;5.40;;;1.45;;
71475;SDS011;59286;59.274;17.974;2023-08-21T13:57:30;4.70;;;1.50;;
71475;SDS011;59286;59.274;17.974;2023-08-21T13:59:57;4.00;;;1.13;;
71475;SDS011;59286;59.274;17.974;2023-08-21T14:02:23;4.03;;;1.10;;
71475;SDS011;59286;59.274;17.974;2023-08-21T14:04:49;4.65;;;1.27;;
71475;SDS011;59286;59.274;17.974;2023-08-21T14:07:15;3.17;;;1.10;;
71475;SDS011;59286;59.274;17.974;2023-08-21T14:09:40;3.85;;;1.02;;
71475;SDS011;59286;59.274;17.974;2023-08-21T14:12:05;3.25;;;1.10;;
71475;SDS011;59286;59.274;17.974;2023-08-21T14:14:32;4.90;;;1.00;;
71475;SDS011;59286;59.274;17.974;2023-08-21T14:16:58;4.65;;;1.27;;
71475;SDS011;59286;59.274;17.974;2023-08-21T14:19:23;2.85;;;1.20;;
71475;SDS011;59286;59.274;17.974;2023-08-21T14:21:49;4.68;;;1.20;;
71475;SDS011;59286;59.274;17.974;2023-08-21T14:24:14;2.50;;;1.10;;
71475;SDS011;59286;59.274;17.974;2023-08-21T14:26:39;4.88;;;1.30;;
71475;SDS011;59286;59.274;17.974;2023-08-21T14:29:05;3.83;;;1.23;;
71475;SDS011;59286;59.274;17.974;2023-08-21T14:31:31;5.90;;;1.45;;
71475;SDS011;59286;59.274;17.974;2023-08-21T14:33:56;3.55;;;1.10;;
71475;SDS011;59286;59.274;17.974;2023-08-21T14:36:22;4.10;;;1.08;;
71475;SDS011;59286;59.274;17.974;2023-08-21T14:38:48;2.75;;;1.00;;